createdAt,value
2022-10-19T00:08:24.858Z,11.50
2022-10-19T00:19:02.239Z,11.60
2022-10-19T00:29:40.033Z,11.60
2022-10-19T00:40:42.512Z,11.70
2022-10-19T00:51:43.845Z,11.70
2022-10-19T01:02:21.878Z,11.70
2022-10-19T01:13:23.747Z,11.50
2022-10-19T01:24:25.308Z,11.31
2022-10-19T01:35:27.390Z,10.92
2022-10-19T01:46:27.467Z,10.82
2022-10-19T01:57:27.261Z,10.72
2022-10-19T02:08:28.024Z,10.62
2022-10-19T02:19:27.026Z,10.43
2022-10-19T02:30:05.408Z,10.23
2022-10-19T02:41:03.935Z,10.14
2022-10-19T02:52:05.737Z,10.04
2022-10-19T03:03:08.139Z,9.94
2022-10-19T03:14:09.452Z,9.94
2022-10-19T03:25:11.869Z,9.94
2022-10-19T03:35:51.285Z,9.84
2022-10-19T03:46:55.271Z,9.94
2022-10-19T03:57:35.295Z,10.33
2022-10-19T04:08:36.022Z,10.72
2022-10-19T04:19:39.988Z,10.82
2022-10-19T04:30:33.830Z,10.82
2022-10-19T04:41:36.723Z,10.82
2022-10-19T04:52:41.226Z,11.01
2022-10-19T05:03:42.473Z,11.11
2022-10-19T05:14:46.328Z,11.31
2022-10-19T05:25:47.384Z,11.31
2022-10-19T05:36:49.047Z,11.31
2022-10-19T05:47:51.893Z,11.41
2022-10-19T05:58:55.125Z,11.70
2022-10-19T06:09:59.222Z,12.09
2022-10-19T06:21:02.156Z,12.48
2022-10-19T06:32:01.384Z,12.87
2022-10-19T06:42:57.583Z,12.87
2022-10-19T06:53:56.577Z,12.97
2022-10-19T07:04:55.441Z,12.87
2022-10-19T07:15:54.406Z,13.26
2022-10-19T07:26:57.607Z,14.54
2022-10-19T07:37:59.240Z,15.32
2022-10-19T07:48:52.956Z,15.71
2022-10-19T07:59:36.148Z,15.51
2022-10-19T08:10:12.383Z,15.91
2022-10-19T08:21:10.006Z,16.59
2022-10-19T08:31:44.653Z,16.79
2022-10-19T08:42:43.823Z,16.98
2022-10-19T08:53:42.879Z,17.37
2022-10-19T09:04:30.114Z,17.08
2022-10-19T09:15:27.158Z,17.47
2022-10-19T09:26:25.223Z,17.08
2022-10-19T09:37:26.043Z,17.27
2022-10-19T09:48:24.962Z,17.76
2022-10-19T09:59:24.044Z,18.74
2022-10-19T10:10:17.093Z,17.96
2022-10-19T10:21:15.628Z,17.96
2022-10-19T10:32:05.364Z,20.01
2022-10-19T10:43:04.560Z,19.72
2022-10-19T10:53:50.907Z,24.22
2022-10-19T11:04:42.082Z,25.98
2022-10-19T11:15:42.332Z,27.15
2022-10-19T11:26:43.792Z,27.45
2022-10-19T11:37:49.729Z,28.62
2022-10-19T11:48:44.820Z,28.13
2022-10-19T11:59:44.475Z,28.23
2022-10-19T12:10:45.605Z,28.81
2022-10-19T12:21:44.196Z,29.01
2022-10-19T12:32:17.228Z,29.50
2022-10-19T12:43:15.005Z,28.32
2022-10-19T12:53:56.390Z,28.03
2022-10-19T13:04:50.775Z,27.74
2022-10-19T13:15:48.279Z,28.81
2022-10-19T13:26:48.990Z,29.69
2022-10-19T13:37:49.046Z,28.52
2022-10-19T13:48:48.601Z,26.27
2022-10-19T13:59:46.101Z,22.36
2022-10-19T14:11:00.120Z,21.28
2022-10-19T14:21:44.587Z,20.80
2022-10-19T14:32:42.956Z,20.01
2022-10-19T14:43:31.889Z,19.62
2022-10-19T14:54:27.535Z,19.03
2022-10-19T15:05:26.689Z,18.84
2022-10-19T15:16:25.741Z,18.45
2022-10-19T15:27:25.833Z,18.06
2022-10-19T15:38:25.910Z,17.67
2022-10-19T15:49:24.781Z,17.08
2022-10-19T15:59:57.732Z,16.59
2022-10-19T16:10:55.283Z,16.49
2022-10-19T16:21:55.292Z,16.30
2022-10-19T16:32:43.644Z,16.10
2022-10-19T16:43:18.484Z,15.90
2022-10-19T16:54:15.394Z,15.71
2022-10-19T17:05:10.013Z,15.42
2022-10-19T17:16:00.051Z,15.42
2022-10-19T17:26:49.606Z,15.32
2022-10-19T17:37:40.360Z,15.22
2022-10-19T17:48:34.936Z,15.32
2022-10-19T18:10:16.045Z,15.22
2022-10-19T18:21:14.402Z,15.12
2022-10-19T18:32:03.453Z,14.73
2022-10-19T18:43:02.423Z,14.44
2022-10-19T18:53:57.956Z,14.05
2022-10-19T19:04:53.268Z,13.95
2022-10-19T19:15:50.539Z,13.85
2022-10-19T19:26:51.915Z,13.66
2022-10-19T19:37:45.006Z,13.56
2022-10-19T19:48:39.103Z,13.75
2022-10-19T19:59:29.976Z,13.85
2022-10-19T20:10:25.406Z,13.75
2022-10-19T20:21:24.560Z,13.65
2022-10-19T20:32:19.861Z,13.66
2022-10-19T20:43:19.267Z,13.85
2022-10-19T20:54:16.454Z,13.56
2022-10-19T21:04:52.617Z,13.36
2022-10-19T21:15:44.627Z,13.26
2022-10-19T21:26:20.641Z,13.07
2022-10-19T21:37:12.298Z,12.78
2022-10-19T21:48:11.555Z,12.48
2022-10-19T21:59:05.601Z,12.48
2022-10-19T22:10:00.835Z,12.38
2022-10-19T22:21:00.155Z,12.19
2022-10-19T22:31:37.236Z,11.99
2022-10-19T22:42:39.416Z,11.80
2022-10-19T22:53:37.046Z,11.60
2022-10-19T23:04:32.322Z,11.50
2022-10-19T23:15:34.510Z,11.41
2022-10-19T23:26:11.286Z,11.31
2022-10-19T23:36:48.106Z,11.41
2022-10-19T23:47:49.080Z,11.41
2022-10-19T23:58:50.632Z,11.31
